sensor_id;sensor_type;location;lat;lon;timestamp;P1;durP1;ratioP1;P2;durP2;ratioP2
16612;SDS011;8419;52.358;9.752;2023-06-10T00:00:53;4.15;;;2.25;;
16612;SDS011;8419;52.358;9.752;2023-06-10T00:03:40;3.90;;;2.55;;
16612;SDS011;8419;52.358;9.752;2023-06-10T00:06:27;4.32;;;2.58;;
16612;SDS011;8419;52.358;9.752;2023-06-10T00:09:20;4.00;;;2.37;;
16612;SDS011;8419;52.358;9.752;2023-06-10T00:12:08;3.53;;;2.40;;
16612;SDS011;8419;52.358;9.752;2023-06-10T00:14:54;4.32;;;2.53;;
16612;SDS011;8419;52.358;9.752;2023-06-10T00:17:39;3.58;;;2.58;;
16612;SDS011;8419;52.358;9.752;2023-06-10T00:20:25;7.45;;;2.60;;
16612;SDS011;8419;52.358;9.752;2023-06-10T00:23:11;4.70;;;2.37;;
16612;SDS011;8419;52.358;9.752;2023-06-10T00:25:58;3.55;;;2.37;;
16612;SDS011;8419;52.358;9.752;2023-06-10T00:28:43;3.67;;;2.72;;
16612;SDS011;8419;52.358;9.752;2023-06-10T00:31:29;3.55;;;2.42;;
16612;SDS011;8419;52.358;9.752;2023-06-10T00:34:15;3.75;;;2.25;;
16612;SDS011;8419;52.358;9.752;2023-06-10T00:37:01;3.62;;;2.25;;
16612;SDS011;8419;52.358;9.752;2023-06-10T00:39:47;4.75;;;2.35;;
16612;SDS011;8419;52.358;9.752;2023-06-10T00:42:32;4.70;;;2.55;;
16612;SDS011;8419;52.358;9.752;2023-06-10T00:45:17;3.75;;;2.45;;
16612;SDS011;8419;52.358;9.752;2023-06-10T00:48:04;4.72;;;2.28;;
16612;SDS011;8419;52.358;9.752;2023-06-10T00:50:52;5.20;;;2.72;;
16612;SDS011;8419;52.358;9.752;2023-06-10T00:53:39;3.65;;;2.47;;
16612;SDS011;8419;52.358;9.752;2023-06-10T00:56:25;5.18;;;2.47;;
16612;SDS011;8419;52.358;9.752;2023-06-10T00:59:11;7.43;;;3.33;;
16612;SDS011;8419;52.358;9.752;2023-06-10T01:01:58;5.62;;;2.40;;
16612;SDS011;8419;52.358;9.752;2023-06-10T01:04:45;5.80;;;2.60;;
16612;SDS011;8419;52.358;9.752;2023-06-10T01:07:34;5.43;;;2.85;;
16612;SDS011;8419;52.358;9.752;2023-06-10T01:10:27;7.35;;;2.47;;
16612;SDS011;8419;52.358;9.752;2023-06-10T01:13:17;3.65;;;2.47;;
16612;SDS011;8419;52.358;9.752;2023-06-10T01:16:08;4.95;;;2.50;;
16612;SDS011;8419;52.358;9.752;2023-06-10T01:18:54;3.97;;;2.90;;
16612;SDS011;8419;52.358;9.752;2023-06-10T01:21:39;4.53;;;2.75;;
16612;SDS011;8419;52.358;9.752;2023-06-10T01:24:24;3.70;;;2.60;;
16612;SDS011;8419;52.358;9.752;2023-06-10T01:27:11;7.70;;;2.65;;
16612;SDS011;8419;52.358;9.752;2023-06-10T01:30:02;7.03;;;3.00;;
16612;SDS011;8419;52.358;9.752;2023-06-10T01:32:52;4.82;;;2.37;;
16612;SDS011;8419;52.358;9.752;2023-06-10T01:35:39;6.35;;;2.60;;
16612;SDS011;8419;52.358;9.752;2023-06-10T01:38:25;6.72;;;3.10;;
16612;SDS011;8419;52.358;9.752;2023-06-10T01:41:15;4.90;;;2.87;;
16612;SDS011;8419;52.358;9.752;2023-06-10T01:44:02;5.40;;;2.70;;
16612;SDS011;8419;52.358;9.752;2023-06-10T01:46:48;5.75;;;3.00;;
16612;SDS011;8419;52.358;9.752;2023-06-10T01:49:40;5.10;;;2.78;;
16612;SDS011;8419;52.358;9.752;2023-06-10T01:52:26;3.22;;;2.83;;
16612;SDS011;8419;52.358;9.752;2023-06-10T01:55:11;3.67;;;2.80;;
16612;SDS011;8419;52.358;9.752;2023-06-10T01:57:57;7.25;;;2.60;;
16612;SDS011;8419;52.358;9.752;2023-06-10T02:00:42;7.25;;;3.17;;
16612;SDS011;8419;52.358;9.752;2023-06-10T02:03:28;4.18;;;2.80;;
16612;SDS011;8419;52.358;9.752;2023-06-10T02:06:13;4.35;;;2.70;;
16612;SDS011;8419;52.358;9.752;2023-06-10T02:09:00;6.45;;;2.83;;
16612;SDS011;8419;52.358;9.752;2023-06-10T02:11:45;4.62;;;2.47;;
16612;SDS011;8419;52.358;9.752;2023-06-10T02:14:31;4.78;;;3.10;;
16612;SDS011;8419;52.358;9.752;2023-06-10T02:17:18;5.68;;;2.83;;
16612;SDS011;8419;52.358;9.752;2023-06-10T02:20:04;6.43;;;3.15;;
16612;SDS011;8419;52.358;9.752;2023-06-10T02:22:54;4.37;;;2.87;;
16612;SDS011;8419;52.358;9.752;2023-06-10T02:25:40;6.72;;;3.20;;
16612;SDS011;8419;52.358;9.752;2023-06-10T02:28:26;3.87;;;2.67;;
16612;SDS011;8419;52.358;9.752;2023-06-10T02:31:11;9.40;;;3.10;;
16612;SDS011;8419;52.358;9.752;2023-06-10T02:33:57;5.60;;;3.03;;
16612;SDS011;8419;52.358;9.752;2023-06-10T02:36:43;5.55;;;3.05;;
16612;SDS011;8419;52.358;9.752;2023-06-10T02:39:28;8.10;;;3.40;;
16612;SDS011;8419;52.358;9.752;2023-06-10T02:42:13;5.43;;;3.10;;
16612;SDS011;8419;52.358;9.752;2023-06-10T02:44:58;4.45;;;2.72;;
16612;SDS011;8419;52.358;9.752;2023-06-10T02:47:45;7.18;;;2.85;;
16612;SDS011;8419;52.358;9.752;2023-06-10T02:50:30;5.60;;;2.95;;
16612;SDS011;8419;52.358;9.752;2023-06-10T02:53:15;7.03;;;3.33;;
16612;SDS011;8419;52.358;9.752;2023-06-10T02:56:01;5.22;;;3.00;;
16612;SDS011;8419;52.358;9.752;2023-06-10T02:58:47;3.97;;;2.97;;
16612;SDS011;8419;52.358;9.752;2023-06-10T03:01:35;4.70;;;3.28;;
16612;SDS011;8419;52.358;9.752;2023-06-10T03:04:21;6.25;;;3.33;;
16612;SDS011;8419;52.358;9.752;2023-06-10T03:07:07;9.73;;;3.42;;
16612;SDS011;8419;52.358;9.752;2023-06-10T03:09:55;8.73;;;3.58;;
16612;SDS011;8419;52.358;9.752;2023-06-10T03:12:40;4.57;;;3.05;;
16612;SDS011;8419;52.358;9.752;2023-06-10T03:15:25;6.05;;;2.90;;
16612;SDS011;8419;52.358;9.752;2023-06-10T03:18:12;8.18;;;2.80;;
16612;SDS011;8419;52.358;9.752;2023-06-10T03:20:58;6.40;;;3.70;;
16612;SDS011;8419;52.358;9.752;2023-06-10T03:23:44;6.65;;;3.05;;
16612;SDS011;8419;52.358;9.752;2023-06-10T03:26:29;6.53;;;3.37;;
16612;SDS011;8419;52.358;9.752;2023-06-10T03:29:14;6.10;;;3.40;;
16612;SDS011;8419;52.358;9.752;2023-06-10T03:32:01;5.28;;;3.53;;
16612;SDS011;8419;52.358;9.752;2023-06-10T03:34:49;5.37;;;3.42;;
16612;SDS011;8419;52.358;9.752;2023-06-10T03:37:35;9.85;;;4.15;;
16612;SDS011;8419;52.358;9.752;2023-06-10T03:40:21;8.65;;;3.40;;
16612;SDS011;8419;52.358;9.752;2023-06-10T03:43:06;9.45;;;3.75;;
16612;SDS011;8419;52.358;9.752;2023-06-10T03:45:51;7.60;;;3.80;;
16612;SDS011;8419;52.358;9.752;2023-06-10T03:48:37;6.78;;;4.18;;
16612;SDS011;8419;52.358;9.752;2023-06-10T03:51:23;6.90;;;3.70;;
16612;SDS011;8419;52.358;9.752;2023-06-10T03:54:08;7.57;;;3.60;;
16612;SDS011;8419;52.358;9.752;2023-06-10T03:56:55;6.10;;;3.72;;
16612;SDS011;8419;52.358;9.752;2023-06-10T03:59:40;8.63;;;3.87;;
16612;SDS011;8419;52.358;9.752;2023-06-10T04:02:26;6.90;;;3.72;;
16612;SDS011;8419;52.358;9.752;2023-06-10T04:05:11;7.03;;;3.95;;
16612;SDS011;8419;52.358;9.752;2023-06-10T04:07:57;7.30;;;3.60;;
16612;SDS011;8419;52.358;9.752;2023-06-10T04:10:43;7.47;;;4.03;;
16612;SDS011;8419;52.358;9.752;2023-06-10T04:13:28;7.82;;;3.80;;
16612;SDS011;8419;52.358;9.752;2023-06-10T04:16:14;5.62;;;3.62;;
16612;SDS011;8419;52.358;9.752;2023-06-10T04:19:00;9.82;;;4.55;;
16612;SDS011;8419;52.358;9.752;2023-06-10T04:21:45;6.53;;;3.70;;
16612;SDS011;8419;52.358;9.752;2023-06-10T04:24:32;7.35;;;4.20;;
16612;SDS011;8419;52.358;9.752;2023-06-10T04:27:17;7.68;;;4.15;;
16612;SDS011;8419;52.358;9.752;2023-06-10T04:30:05;5.60;;;3.72;;
16612;SDS011;8419;52.358;9.752;2023-06-10T04:32:52;7.50;;;4.40;;
16612;SDS011;8419;52.358;9.752;2023-06-10T04:35:37;7.60;;;4.82;;
16612;SDS011;8419;52.358;9.752;2023-06-10T04:38:22;6.97;;;4.12;;
16612;SDS011;8419;52.358;9.752;2023-06-10T04:41:08;6.70;;;4.05;;
16612;SDS011;8419;52.358;9.752;2023-06-10T04:43:53;9.10;;;4.22;;
16612;SDS011;8419;52.358;9.752;2023-06-10T04:46:39;6.50;;;4.18;;
16612;SDS011;8419;52.358;9.752;2023-06-10T04:49:24;6.22;;;4.28;;
16612;SDS011;8419;52.358;9.752;2023-06-10T04:52:10;5.60;;;4.10;;
16612;SDS011;8419;52.358;9.752;2023-06-10T04:54:58;9.35;;;3.58;;
16612;SDS011;8419;52.358;9.752;2023-06-10T04:57:43;4.65;;;3.75;;
16612;SDS011;8419;52.358;9.752;2023-06-10T05:00:29;8.50;;;4.03;;
16612;SDS011;8419;52.358;9.752;2023-06-10T05:03:14;9.43;;;4.07;;
16612;SDS011;8419;52.358;9.752;2023-06-10T05:06:00;6.07;;;4.18;;
16612;SDS011;8419;52.358;9.752;2023-06-10T05:08:46;9.13;;;4.22;;
16612;SDS011;8419;52.358;9.752;2023-06-10T05:11:32;7.65;;;3.87;;
16612;SDS011;8419;52.358;9.752;2023-06-10T05:14:18;7.70;;;4.07;;
16612;SDS011;8419;52.358;9.752;2023-06-10T05:17:05;9.88;;;4.93;;
16612;SDS011;8419;52.358;9.752;2023-06-10T05:19:51;8.43;;;4.05;;
16612;SDS011;8419;52.358;9.752;2023-06-10T05:22:36;7.78;;;3.92;;
16612;SDS011;8419;52.358;9.752;2023-06-10T05:25:22;9.05;;;4.40;;
16612;SDS011;8419;52.358;9.752;2023-06-10T05:28:08;7.22;;;4.00;;
16612;SDS011;8419;52.358;9.752;2023-06-10T05:30:54;11.25;;;4.05;;
16612;SDS011;8419;52.358;9.752;2023-06-10T05:33:39;9.18;;;4.30;;
16612;SDS011;8419;52.358;9.752;2023-06-10T05:36:25;7.72;;;4.15;;
16612;SDS011;8419;52.358;9.752;2023-06-10T05:39:11;8.25;;;4.50;;
16612;SDS011;8419;52.358;9.752;2023-06-10T05:41:57;8.00;;;4.05;;
16612;SDS011;8419;52.358;9.752;2023-06-10T05:44:43;7.22;;;4.05;;
16612;SDS011;8419;52.358;9.752;2023-06-10T05:47:29;4.47;;;3.75;;
16612;SDS011;8419;52.358;9.752;2023-06-10T05:50:14;10.65;;;3.92;;
16612;SDS011;8419;52.358;9.752;2023-06-10T05:53:00;6.20;;;3.53;;
16612;SDS011;8419;52.358;9.752;2023-06-10T05:55:45;8.48;;;3.95;;
16612;SDS011;8419;52.358;9.752;2023-06-10T05:58:30;7.37;;;3.42;;
16612;SDS011;8419;52.358;9.752;2023-06-10T06:01:16;6.45;;;3.95;;
16612;SDS011;8419;52.358;9.752;2023-06-10T06:04:02;7.22;;;4.55;;
16612;SDS011;8419;52.358;9.752;2023-06-10T06:06:48;9.25;;;4.95;;
16612;SDS011;8419;52.358;9.752;2023-06-10T06:09:33;8.18;;;4.35;;
16612;SDS011;8419;52.358;9.752;2023-06-10T06:12:19;9.60;;;4.15;;
16612;SDS011;8419;52.358;9.752;2023-06-10T06:15:05;10.07;;;4.30;;
16612;SDS011;8419;52.358;9.752;2023-06-10T06:17:53;6.20;;;4.37;;
16612;SDS011;8419;52.358;9.752;2023-06-10T06:20:39;8.00;;;3.67;;
16612;SDS011;8419;52.358;9.752;2023-06-10T06:23:25;7.70;;;3.95;;
16612;SDS011;8419;52.358;9.752;2023-06-10T06:26:13;8.80;;;3.67;;
16612;SDS011;8419;52.358;9.752;2023-06-10T06:29:00;9.52;;;4.00;;
16612;SDS011;8419;52.358;9.752;2023-06-10T06:31:45;7.47;;;3.97;;
16612;SDS011;8419;52.358;9.752;2023-06-10T06:34:31;8.90;;;4.62;;
16612;SDS011;8419;52.358;9.752;2023-06-10T06:37:17;6.07;;;4.12;;
16612;SDS011;8419;52.358;9.752;2023-06-10T06:40:05;8.27;;;4.50;;
16612;SDS011;8419;52.358;9.752;2023-06-10T06:42:55;7.68;;;3.83;;
16612;SDS011;8419;52.358;9.752;2023-06-10T06:45:43;6.20;;;4.00;;
16612;SDS011;8419;52.358;9.752;2023-06-10T06:48:30;6.37;;;4.37;;
16612;SDS011;8419;52.358;9.752;2023-06-10T06:51:18;7.97;;;4.55;;
16612;SDS011;8419;52.358;9.752;2023-06-10T06:54:04;8.50;;;4.37;;
16612;SDS011;8419;52.358;9.752;2023-06-10T06:56:50;7.05;;;4.50;;
16612;SDS011;8419;52.358;9.752;2023-06-10T06:59:35;6.12;;;4.10;;
16612;SDS011;8419;52.358;9.752;2023-06-10T07:02:21;8.55;;;4.93;;
16612;SDS011;8419;52.358;9.752;2023-06-10T07:05:07;9.00;;;4.72;;
16612;SDS011;8419;52.358;9.752;2023-06-10T07:07:58;6.87;;;4.57;;
16612;SDS011;8419;52.358;9.752;2023-06-10T07:10:44;12.23;;;5.05;;
16612;SDS011;8419;52.358;9.752;2023-06-10T07:13:29;9.00;;;5.15;;
16612;SDS011;8419;52.358;9.752;2023-06-10T07:16:14;6.78;;;4.50;;
16612;SDS011;8419;52.358;9.752;2023-06-10T07:19:00;7.30;;;4.00;;
16612;SDS011;8419;52.358;9.752;2023-06-10T07:21:46;8.38;;;4.47;;
16612;SDS011;8419;52.358;9.752;2023-06-10T07:24:32;7.57;;;4.07;;
16612;SDS011;8419;52.358;9.752;2023-06-10T07:27:17;6.20;;;3.80;;
16612;SDS011;8419;52.358;9.752;2023-06-10T07:30:05;10.35;;;3.80;;
16612;SDS011;8419;52.358;9.752;2023-06-10T07:32:52;7.03;;;3.78;;
16612;SDS011;8419;52.358;9.752;2023-06-10T07:35:38;7.82;;;3.95;;
16612;SDS011;8419;52.358;9.752;2023-06-10T07:38:24;9.23;;;3.97;;
16612;SDS011;8419;52.358;9.752;2023-06-10T07:41:10;6.35;;;3.85;;
16612;SDS011;8419;52.358;9.752;2023-06-10T07:43:55;5.12;;;3.67;;
16612;SDS011;8419;52.358;9.752;2023-06-10T07:46:41;7.82;;;4.20;;
16612;SDS011;8419;52.358;9.752;2023-06-10T07:49:26;7.53;;;4.15;;
16612;SDS011;8419;52.358;9.752;2023-06-10T07:52:12;8.10;;;4.12;;
16612;SDS011;8419;52.358;9.752;2023-06-10T07:54:58;7.47;;;4.37;;
16612;SDS011;8419;52.358;9.752;2023-06-10T07:57:45;6.35;;;4.43;;
16612;SDS011;8419;52.358;9.752;2023-06-10T08:00:31;7.90;;;4.18;;
16612;SDS011;8419;52.358;9.752;2023-06-10T08:03:16;9.35;;;4.07;;
16612;SDS011;8419;52.358;9.752;2023-06-10T08:06:05;8.23;;;4.12;;
16612;SDS011;8419;52.358;9.752;2023-06-10T08:08:50;7.05;;;4.00;;
16612;SDS011;8419;52.358;9.752;2023-06-10T08:11:36;7.53;;;3.70;;
16612;SDS011;8419;52.358;9.752;2023-06-10T08:14:22;8.27;;;4.12;;
16612;SDS011;8419;52.358;9.752;2023-06-10T08:17:07;7.32;;;4.05;;
16612;SDS011;8419;52.358;9.752;2023-06-10T08:19:53;6.57;;;3.80;;
16612;SDS011;8419;52.358;9.752;2023-06-10T08:22:40;6.05;;;3.83;;
16612;SDS011;8419;52.358;9.752;2023-06-10T08:25:26;5.75;;;4.00;;
16612;SDS011;8419;52.358;9.752;2023-06-10T08:28:12;6.00;;;4.03;;
16612;SDS011;8419;52.358;9.752;2023-06-10T08:30:57;7.80;;;4.22;;
16612;SDS011;8419;52.358;9.752;2023-06-10T08:33:45;6.65;;;4.10;;
16612;SDS011;8419;52.358;9.752;2023-06-10T08:36:37;10.82;;;3.78;;
16612;SDS011;8419;52.358;9.752;2023-06-10T08:39:23;10.43;;;5.18;;
16612;SDS011;8419;52.358;9.752;2023-06-10T08:42:10;6.87;;;3.92;;
16612;SDS011;8419;52.358;9.752;2023-06-10T08:45:02;6.37;;;3.80;;
16612;SDS011;8419;52.358;9.752;2023-06-10T08:47:50;8.57;;;4.12;;
16612;SDS011;8419;52.358;9.752;2023-06-10T08:50:37;12.95;;;5.32;;
16612;SDS011;8419;52.358;9.752;2023-06-10T08:53:24;6.43;;;4.15;;
16612;SDS011;8419;52.358;9.752;2023-06-10T08:56:12;6.97;;;3.70;;
16612;SDS011;8419;52.358;9.752;2023-06-10T08:59:01;6.00;;;3.65;;
16612;SDS011;8419;52.358;9.752;2023-06-10T09:01:47;6.07;;;3.90;;
16612;SDS011;8419;52.358;9.752;2023-06-10T09:04:34;5.00;;;3.55;;
16612;SDS011;8419;52.358;9.752;2023-06-10T09:07:21;5.05;;;3.70;;
16612;SDS011;8419;52.358;9.752;2023-06-10T09:10:10;6.75;;;4.00;;
16612;SDS011;8419;52.358;9.752;2023-06-10T09:12:57;9.25;;;3.70;;
16612;SDS011;8419;52.358;9.752;2023-06-10T09:15:42;7.40;;;3.80;;
16612;SDS011;8419;52.358;9.752;2023-06-10T09:18:29;6.80;;;3.22;;
16612;SDS011;8419;52.358;9.752;2023-06-10T09:21:15;6.20;;;4.00;;
16612;SDS011;8419;52.358;9.752;2023-06-10T09:24:01;6.45;;;3.90;;
16612;SDS011;8419;52.358;9.752;2023-06-10T09:26:47;6.28;;;3.58;;
16612;SDS011;8419;52.358;9.752;2023-06-10T09:29:32;5.28;;;3.58;;
16612;SDS011;8419;52.358;9.752;2023-06-10T09:32:31;6.37;;;3.50;;
16612;SDS011;8419;52.358;9.752;2023-06-10T09:35:23;5.47;;;3.33;;
16612;SDS011;8419;52.358;9.752;2023-06-10T09:38:10;5.22;;;3.50;;
16612;SDS011;8419;52.358;9.752;2023-06-10T09:40:55;4.80;;;3.28;;
16612;SDS011;8419;52.358;9.752;2023-06-10T09:43:41;4.82;;;3.58;;
16612;SDS011;8419;52.358;9.752;2023-06-10T09:46:31;4.93;;;3.53;;
16612;SDS011;8419;52.358;9.752;2023-06-10T09:49:17;9.85;;;4.25;;
16612;SDS011;8419;52.358;9.752;2023-06-10T09:52:05;7.78;;;3.30;;
16612;SDS011;8419;52.358;9.752;2023-06-10T09:54:54;3.78;;;2.70;;
16612;SDS011;8419;52.358;9.752;2023-06-10T09:57:44;5.90;;;3.20;;
16612;SDS011;8419;52.358;9.752;2023-06-10T10:00:34;7.10;;;3.50;;
16612;SDS011;8419;52.358;9.752;2023-06-10T10:03:22;4.07;;;3.30;;
16612;SDS011;8419;52.358;9.752;2023-06-10T10:06:09;6.57;;;3.97;;
16612;SDS011;8419;52.358;9.752;2023-06-10T10:08:55;8.68;;;3.25;;
16612;SDS011;8419;52.358;9.752;2023-06-10T10:11:41;10.93;;;3.53;;
16612;SDS011;8419;52.358;9.752;2023-06-10T10:14:29;10.95;;;3.28;;
16612;SDS011;8419;52.358;9.752;2023-06-10T10:17:17;4.87;;;3.30;;
16612;SDS011;8419;52.358;9.752;2023-06-10T10:20:08;4.53;;;3.03;;
16612;SDS011;8419;52.358;9.752;2023-06-10T10:22:59;6.80;;;3.25;;
16612;SDS011;8419;52.358;9.752;2023-06-10T10:25:50;5.03;;;2.87;;
16612;SDS011;8419;52.358;9.752;2023-06-10T10:28:40;3.90;;;3.17;;
16612;SDS011;8419;52.358;9.752;2023-06-10T10:31:30;5.15;;;3.42;;
16612;SDS011;8419;52.358;9.752;2023-06-10T10:34:21;5.95;;;3.80;;
16612;SDS011;8419;52.358;9.752;2023-06-10T10:37:10;6.53;;;3.80;;
16612;SDS011;8419;52.358;9.752;2023-06-10T10:39:56;7.70;;;3.37;;
16612;SDS011;8419;52.358;9.752;2023-06-10T10:42:42;5.93;;;3.50;;
16612;SDS011;8419;52.358;9.752;2023-06-10T10:45:28;7.65;;;3.62;;
16612;SDS011;8419;52.358;9.752;2023-06-10T10:48:15;7.80;;;3.72;;
16612;SDS011;8419;52.358;9.752;2023-06-10T10:51:02;7.20;;;3.92;;
16612;SDS011;8419;52.358;9.752;2023-06-10T10:57:11;4.68;;;3.62;;
16612;SDS011;8419;52.358;9.752;2023-06-10T10:59:58;4.43;;;3.37;;
16612;SDS011;8419;52.358;9.752;2023-06-10T11:02:45;7.28;;;4.03;;
16612;SDS011;8419;52.358;9.752;2023-06-10T11:05:38;8.00;;;4.90;;
16612;SDS011;8419;52.358;9.752;2023-06-10T11:08:47;5.43;;;3.80;;
16612;SDS011;8419;52.358;9.752;2023-06-10T11:11:38;5.72;;;3.65;;
16612;SDS011;8419;52.358;9.752;2023-06-10T11:14:35;6.25;;;4.20;;
16612;SDS011;8419;52.358;9.752;2023-06-10T11:17:24;6.10;;;4.50;;
16612;SDS011;8419;52.358;9.752;2023-06-10T11:20:10;7.20;;;4.05;;
16612;SDS011;8419;52.358;9.752;2023-06-10T11:22:59;6.22;;;4.32;;
16612;SDS011;8419;52.358;9.752;2023-06-10T11:25:47;9.95;;;4.37;;
16612;SDS011;8419;52.358;9.752;2023-06-10T11:28:34;7.30;;;4.28;;
16612;SDS011;8419;52.358;9.752;2023-06-10T11:31:20;5.82;;;4.07;;
16612;SDS011;8419;52.358;9.752;2023-06-10T11:34:08;7.03;;;4.15;;
16612;SDS011;8419;52.358;9.752;2023-06-10T11:36:55;5.28;;;3.87;;
16612;SDS011;8419;52.358;9.752;2023-06-10T11:39:41;4.95;;;3.90;;
16612;SDS011;8419;52.358;9.752;2023-06-10T11:42:28;6.18;;;3.85;;
16612;SDS011;8419;52.358;9.752;2023-06-10T11:45:15;7.68;;;3.85;;
16612;SDS011;8419;52.358;9.752;2023-06-10T11:48:02;7.12;;;4.30;;
16612;SDS011;8419;52.358;9.752;2023-06-10T11:50:48;5.22;;;4.40;;
16612;SDS011;8419;52.358;9.752;2023-06-10T11:53:34;7.65;;;4.28;;
16612;SDS011;8419;52.358;9.752;2023-06-10T11:56:20;5.12;;;4.47;;
16612;SDS011;8419;52.358;9.752;2023-06-10T11:59:07;5.10;;;4.25;;
16612;SDS011;8419;52.358;9.752;2023-06-10T12:01:53;6.70;;;4.40;;
16612;SDS011;8419;52.358;9.752;2023-06-10T12:04:40;6.93;;;5.12;;
16612;SDS011;8419;52.358;9.752;2023-06-10T12:07:26;6.47;;;4.35;;
16612;SDS011;8419;52.358;9.752;2023-06-10T12:10:13;5.97;;;4.15;;
16612;SDS011;8419;52.358;9.752;2023-06-10T12:13:00;5.80;;;4.28;;
16612;SDS011;8419;52.358;9.752;2023-06-10T12:15:50;6.75;;;4.30;;
16612;SDS011;8419;52.358;9.752;2023-06-10T12:18:38;7.07;;;4.40;;
16612;SDS011;8419;52.358;9.752;2023-06-10T12:21:24;5.97;;;4.57;;
16612;SDS011;8419;52.358;9.752;2023-06-10T12:24:11;6.53;;;4.37;;
16612;SDS011;8419;52.358;9.752;2023-06-10T12:26:57;6.18;;;4.57;;
16612;SDS011;8419;52.358;9.752;2023-06-10T12:29:51;4.72;;;4.22;;
16612;SDS011;8419;52.358;9.752;2023-06-10T12:32:41;7.50;;;4.03;;
16612;SDS011;8419;52.358;9.752;2023-06-10T12:35:29;5.40;;;4.60;;
16612;SDS011;8419;52.358;9.752;2023-06-10T12:38:21;8.32;;;4.43;;
16612;SDS011;8419;52.358;9.752;2023-06-10T12:41:08;6.87;;;4.75;;
16612;SDS011;8419;52.358;9.752;2023-06-10T12:43:54;6.72;;;5.12;;
16612;SDS011;8419;52.358;9.752;2023-06-10T12:46:40;5.50;;;4.43;;
16612;SDS011;8419;52.358;9.752;2023-06-10T12:49:25;7.28;;;4.80;;
16612;SDS011;8419;52.358;9.752;2023-06-10T12:52:11;6.00;;;4.57;;
16612;SDS011;8419;52.358;9.752;2023-06-10T12:54:57;4.47;;;3.70;;
16612;SDS011;8419;52.358;9.752;2023-06-10T12:57:48;6.53;;;4.22;;
16612;SDS011;8419;52.358;9.752;2023-06-10T13:00:33;9.20;;;4.95;;
16612;SDS011;8419;52.358;9.752;2023-06-10T13:03:20;7.97;;;4.53;;
16612;SDS011;8419;52.358;9.752;2023-06-10T13:06:07;6.40;;;4.32;;
16612;SDS011;8419;52.358;9.752;2023-06-10T13:08:53;5.18;;;4.20;;
16612;SDS011;8419;52.358;9.752;2023-06-10T13:11:40;5.70;;;4.18;;
16612;SDS011;8419;52.358;9.752;2023-06-10T13:14:26;8.18;;;4.78;;
16612;SDS011;8419;52.358;9.752;2023-06-10T13:17:12;5.70;;;4.50;;
16612;SDS011;8419;52.358;9.752;2023-06-10T13:19:58;6.53;;;4.62;;
16612;SDS011;8419;52.358;9.752;2023-06-10T13:22:43;5.10;;;4.57;;
16612;SDS011;8419;52.358;9.752;2023-06-10T13:25:29;4.87;;;4.30;;
16612;SDS011;8419;52.358;9.752;2023-06-10T13:28:14;6.87;;;4.40;;
16612;SDS011;8419;52.358;9.752;2023-06-10T13:31:00;4.57;;;4.15;;
16612;SDS011;8419;52.358;9.752;2023-06-10T13:33:46;7.93;;;4.20;;
16612;SDS011;8419;52.358;9.752;2023-06-10T13:36:32;5.35;;;4.65;;
16612;SDS011;8419;52.358;9.752;2023-06-10T13:39:17;5.07;;;4.55;;
16612;SDS011;8419;52.358;9.752;2023-06-10T13:42:03;4.15;;;3.75;;
16612;SDS011;8419;52.358;9.752;2023-06-10T13:44:49;5.57;;;4.25;;
16612;SDS011;8419;52.358;9.752;2023-06-10T13:47:36;5.47;;;4.10;;
16612;SDS011;8419;52.358;9.752;2023-06-10T13:50:22;4.55;;;4.15;;
16612;SDS011;8419;52.358;9.752;2023-06-10T13:53:09;4.85;;;4.00;;
16612;SDS011;8419;52.358;9.752;2023-06-10T13:55:55;10.85;;;4.50;;
16612;SDS011;8419;52.358;9.752;2023-06-10T13:58:41;6.57;;;4.80;;
16612;SDS011;8419;52.358;9.752;2023-06-10T14:01:27;5.78;;;4.32;;
16612;SDS011;8419;52.358;9.752;2023-06-10T14:04:12;5.12;;;4.20;;
16612;SDS011;8419;52.358;9.752;2023-06-10T14:06:58;5.18;;;4.68;;
16612;SDS011;8419;52.358;9.752;2023-06-10T14:09:43;4.72;;;4.30;;
16612;SDS011;8419;52.358;9.752;2023-06-10T14:12:29;4.97;;;4.10;;
16612;SDS011;8419;52.358;9.752;2023-06-10T14:15:15;5.53;;;4.07;;
16612;SDS011;8419;52.358;9.752;2023-06-10T14:18:00;7.62;;;4.50;;
16612;SDS011;8419;52.358;9.752;2023-06-10T14:20:46;7.82;;;4.22;;
16612;SDS011;8419;52.358;9.752;2023-06-10T14:23:33;5.55;;;4.37;;
16612;SDS011;8419;52.358;9.752;2023-06-10T14:26:18;8.45;;;4.82;;
16612;SDS011;8419;52.358;9.752;2023-06-10T14:29:06;6.57;;;4.75;;
16612;SDS011;8419;52.358;9.752;2023-06-10T14:31:54;10.65;;;4.60;;
16612;SDS011;8419;52.358;9.752;2023-06-10T14:34:40;5.70;;;4.25;;
16612;SDS011;8419;52.358;9.752;2023-06-10T14:37:28;5.37;;;4.43;;
16612;SDS011;8419;52.358;9.752;2023-06-10T14:40:13;4.30;;;3.90;;
16612;SDS011;8419;52.358;9.752;2023-06-10T14:42:59;5.22;;;4.47;;
16612;SDS011;8419;52.358;9.752;2023-06-10T14:45:48;7.30;;;4.22;;
16612;SDS011;8419;52.358;9.752;2023-06-10T14:48:35;6.90;;;4.82;;
16612;SDS011;8419;52.358;9.752;2023-06-10T14:51:20;5.93;;;4.15;;
16612;SDS011;8419;52.358;9.752;2023-06-10T14:54:07;7.03;;;4.60;;
16612;SDS011;8419;52.358;9.752;2023-06-10T14:56:53;6.57;;;4.93;;
16612;SDS011;8419;52.358;9.752;2023-06-10T14:59:38;8.57;;;4.70;;
16612;SDS011;8419;52.358;9.752;2023-06-10T15:02:24;8.25;;;4.47;;
16612;SDS011;8419;52.358;9.752;2023-06-10T15:05:11;5.90;;;4.40;;
16612;SDS011;8419;52.358;9.752;2023-06-10T15:07:56;7.60;;;4.50;;
16612;SDS011;8419;52.358;9.752;2023-06-10T15:10:41;5.03;;;4.37;;
16612;SDS011;8419;52.358;9.752;2023-06-10T15:13:29;5.53;;;4.62;;
16612;SDS011;8419;52.358;9.752;2023-06-10T15:16:15;6.28;;;4.18;;
16612;SDS011;8419;52.358;9.752;2023-06-10T15:19:00;4.70;;;4.20;;
16612;SDS011;8419;52.358;9.752;2023-06-10T15:21:46;6.60;;;5.12;;
16612;SDS011;8419;52.358;9.752;2023-06-10T15:24:32;4.22;;;3.83;;
16612;SDS011;8419;52.358;9.752;2023-06-10T15:27:18;5.47;;;4.28;;
16612;SDS011;8419;52.358;9.752;2023-06-10T15:30:06;9.65;;;4.82;;
16612;SDS011;8419;52.358;9.752;2023-06-10T15:32:52;5.22;;;4.47;;
16612;SDS011;8419;52.358;9.752;2023-06-10T15:35:40;5.25;;;4.25;;
16612;SDS011;8419;52.358;9.752;2023-06-10T15:38:25;6.15;;;4.22;;
16612;SDS011;8419;52.358;9.752;2023-06-10T15:41:11;8.88;;;4.90;;
16612;SDS011;8419;52.358;9.752;2023-06-10T15:43:56;5.97;;;4.30;;
16612;SDS011;8419;52.358;9.752;2023-06-10T15:46:43;6.57;;;4.68;;
16612;SDS011;8419;52.358;9.752;2023-06-10T15:49:29;8.57;;;4.45;;
16612;SDS011;8419;52.358;9.752;2023-06-10T15:52:15;5.28;;;4.53;;
16612;SDS011;8419;52.358;9.752;2023-06-10T15:55:00;4.80;;;4.40;;
16612;SDS011;8419;52.358;9.752;2023-06-10T15:57:47;6.05;;;4.45;;
16612;SDS011;8419;52.358;9.752;2023-06-10T16:00:32;5.25;;;4.35;;
16612;SDS011;8419;52.358;9.752;2023-06-10T16:03:18;11.68;;;4.55;;
16612;SDS011;8419;52.358;9.752;2023-06-10T16:06:04;7.57;;;4.28;;
16612;SDS011;8419;52.358;9.752;2023-06-10T16:08:49;6.93;;;5.00;;
16612;SDS011;8419;52.358;9.752;2023-06-10T16:11:35;6.32;;;4.82;;
16612;SDS011;8419;52.358;9.752;2023-06-10T16:14:21;6.12;;;4.62;;
16612;SDS011;8419;52.358;9.752;2023-06-10T16:17:07;8.98;;;5.07;;
16612;SDS011;8419;52.358;9.752;2023-06-10T16:19:52;7.43;;;4.90;;
16612;SDS011;8419;52.358;9.752;2023-06-10T16:22:38;5.28;;;4.75;;
16612;SDS011;8419;52.358;9.752;2023-06-10T16:25:23;6.57;;;4.80;;
16612;SDS011;8419;52.358;9.752;2023-06-10T16:28:09;5.12;;;4.45;;
16612;SDS011;8419;52.358;9.752;2023-06-10T16:30:57;8.05;;;4.97;;
16612;SDS011;8419;52.358;9.752;2023-06-10T16:33:43;5.10;;;4.60;;
16612;SDS011;8419;52.358;9.752;2023-06-10T16:36:29;7.18;;;4.80;;
16612;SDS011;8419;52.358;9.752;2023-06-10T16:39:14;7.62;;;5.05;;
16612;SDS011;8419;52.358;9.752;2023-06-10T16:42:00;6.18;;;4.60;;
16612;SDS011;8419;52.358;9.752;2023-06-10T16:44:45;7.80;;;4.87;;
16612;SDS011;8419;52.358;9.752;2023-06-10T16:47:30;6.10;;;4.62;;
16612;SDS011;8419;52.358;9.752;2023-06-10T16:50:17;5.47;;;4.30;;
16612;SDS011;8419;52.358;9.752;2023-06-10T16:53:02;5.95;;;5.35;;
16612;SDS011;8419;52.358;9.752;2023-06-10T16:55:47;4.82;;;4.43;;
16612;SDS011;8419;52.358;9.752;2023-06-10T16:58:33;5.80;;;5.18;;
16612;SDS011;8419;52.358;9.752;2023-06-10T17:01:19;7.32;;;4.72;;